Airfield :
LOGIN :

Register | Disclaimer

   EN    FR    IT 

 










Legend :    VFR   Marginal VFR   IFR   Intensive IFR   Very Intensive IFR
Visi :
Ceiling :
>= 8 km
>= 3000ft
5 to 8 km
1000 to 3000 ft
1500m to 5 km
500 to 1000 ft
800 to 1500m
200 to 500 ft
< 800m
< 200 ft
Symbols :   Thunderstorms  Fog  Heavy snow  Heavy precipitations  Wind > 20 kt
SIGMETs :     Misc.  Thunderstorms  Icing  Turbulence  Mountain Waves  Volcanic Ashes







- Airport Elevation : 158 ft
- IATA code : QAR


EHDL - Deelen Airbase

CURRENT METAR :
  • 162055Z AUTO VRB02KT 9999 BKN083 16/13 Q1020 BLU

EXPIRED METARs :
  • 162025Z AUTO 11001KT 9999 BKN074 OVC086 17/13 Q1020 BLU
  • 161955Z AUTO 00000KT 9999 BKN073 OVC079 17/13 Q1020 BLU
  • 161925Z AUTO 19003KT 9999 FEW091 19/12 Q1020 BLU
  • 161855Z AUTO 20004KT 140V230 9999 NCD 20/12 Q1020 BLU
  • 161825Z AUTO 22004KT 160V240 9999 NCD 19/12 Q1020 BLU
  • 161755Z AUTO 21005KT 150V260 9999 FEW042 20/12 Q1020 BLU

Expired Forecast.
No reported NOTAMs for that airfield.



MET'MAP, your aeronautical weather chart ! - Copyright ORBIFLY December 2007 - Disclaimer

ORBIFLY MET'MAP TEAM :

Programming & Development : Alexandra Zaïnal
Concept & Development : Baudouin d'Aumeries
Co-Development & Prog : Marc-Olivier Méhu
Technical & hardware support : Manuel Goepfert

Contact : metmap@orbifly.com




SOURCES & CREDITS :

   NOAA